sensor_id;sensor_type;location;lat;lon;timestamp;temperature;humidity
18339;DHT22;9295;44.484;11.240;2024-01-30T00:01:16;1.00;99.90
18339;DHT22;9295;44.484;11.240;2024-01-30T00:03:45;1.00;99.90
18339;DHT22;9295;44.484;11.240;2024-01-30T00:06:14;1.00;99.90
18339;DHT22;9295;44.484;11.240;2024-01-30T00:08:42;1.00;99.90
18339;DHT22;9295;44.484;11.240;2024-01-30T00:11:13;1.00;99.90
18339;DHT22;9295;44.484;11.240;2024-01-30T00:13:42;1.10;99.90
18339;DHT22;9295;44.484;11.240;2024-01-30T00:16:21;1.10;99.90
18339;DHT22;9295;44.484;11.240;2024-01-30T00:18:51;1.00;99.90
18339;DHT22;9295;44.484;11.240;2024-01-30T00:21:20;1.10;99.90
18339;DHT22;9295;44.484;11.240;2024-01-30T00:23:49;1.10;99.90
18339;DHT22;9295;44.484;11.240;2024-01-30T00:26:18;1.10;99.90
18339;DHT22;9295;44.484;11.240;2024-01-30T00:28:47;1.10;99.90
18339;DHT22;9295;44.484;11.240;2024-01-30T00:31:16;1.00;99.90
18339;DHT22;9295;44.484;11.240;2024-01-30T00:33:46;1.00;99.90
18339;DHT22;9295;44.484;11.240;2024-01-30T00:36:15;1.00;99.90
18339;DHT22;9295;44.484;11.240;2024-01-30T00:38:43;1.00;99.90
18339;DHT22;9295;44.484;11.240;2024-01-30T00:41:12;0.90;99.90
18339;DHT22;9295;44.484;11.240;2024-01-30T00:43:40;0.90;99.90
18339;DHT22;9295;44.484;11.240;2024-01-30T00:46:08;0.90;99.90
18339;DHT22;9295;44.484;11.240;2024-01-30T00:48:37;0.90;99.90
18339;DHT22;9295;44.484;11.240;2024-01-30T00:51:07;0.90;99.90
18339;DHT22;9295;44.484;11.240;2024-01-30T00:53:35;0.90;99.90
18339;DHT22;9295;44.484;11.240;2024-01-30T00:56:04;0.80;99.90
18339;DHT22;9295;44.484;11.240;2024-01-30T00:58:33;0.80;99.90
18339;DHT22;9295;44.484;11.240;2024-01-30T01:01:02;0.90;99.90
18339;DHT22;9295;44.484;11.240;2024-01-30T01:03:31;0.90;99.90
18339;DHT22;9295;44.484;11.240;2024-01-30T01:05:59;0.90;99.90
18339;DHT22;9295;44.484;11.240;2024-01-30T01:08:29;0.90;99.90
18339;DHT22;9295;44.484;11.240;2024-01-30T01:10:57;0.90;99.90
18339;DHT22;9295;44.484;11.240;2024-01-30T01:13:43;0.90;99.90
18339;DHT22;9295;44.484;11.240;2024-01-30T01:16:11;0.90;99.90
18339;DHT22;9295;44.484;11.240;2024-01-30T01:18:40;0.90;99.90
18339;DHT22;9295;44.484;11.240;2024-01-30T01:21:09;0.80;99.90
18339;DHT22;9295;44.484;11.240;2024-01-30T01:23:39;0.80;99.90
18339;DHT22;9295;44.484;11.240;2024-01-30T01:26:08;0.80;99.90
18339;DHT22;9295;44.484;11.240;2024-01-30T01:28:36;0.80;99.90
18339;DHT22;9295;44.484;11.240;2024-01-30T01:31:05;0.80;99.90
18339;DHT22;9295;44.484;11.240;2024-01-30T01:33:34;0.70;99.90
18339;DHT22;9295;44.484;11.240;2024-01-30T01:36:04;0.70;99.90
18339;DHT22;9295;44.484;11.240;2024-01-30T01:38:33;0.70;99.90
18339;DHT22;9295;44.484;11.240;2024-01-30T01:41:03;0.70;99.90
18339;DHT22;9295;44.484;11.240;2024-01-30T01:43:32;0.70;99.90
18339;DHT22;9295;44.484;11.240;2024-01-30T01:46:01;0.70;99.90
18339;DHT22;9295;44.484;11.240;2024-01-30T01:48:29;0.70;99.90
18339;DHT22;9295;44.484;11.240;2024-01-30T01:50:59;0.70;99.90
18339;DHT22;9295;44.484;11.240;2024-01-30T01:53:28;0.80;99.90
18339;DHT22;9295;44.484;11.240;2024-01-30T01:55:56;0.80;99.90
18339;DHT22;9295;44.484;11.240;2024-01-30T01:58:28;0.80;99.90
18339;DHT22;9295;44.484;11.240;2024-01-30T02:00:58;0.70;99.90
18339;DHT22;9295;44.484;11.240;2024-01-30T02:03:27;0.80;99.90
18339;DHT22;9295;44.484;11.240;2024-01-30T02:05:56;0.80;99.90
18339;DHT22;9295;44.484;11.240;2024-01-30T02:08:25;0.70;99.90
18339;DHT22;9295;44.484;11.240;2024-01-30T02:10:54;0.70;99.90
18339;DHT22;9295;44.484;11.240;2024-01-30T02:13:23;0.70;99.90
18339;DHT22;9295;44.484;11.240;2024-01-30T02:15:53;0.70;99.90
18339;DHT22;9295;44.484;11.240;2024-01-30T02:18:22;0.70;99.90
18339;DHT22;9295;44.484;11.240;2024-01-30T02:21:12;0.70;99.90
18339;DHT22;9295;44.484;11.240;2024-01-30T02:23:41;0.60;99.90
18339;DHT22;9295;44.484;11.240;2024-01-30T02:26:11;0.60;99.90
18339;DHT22;9295;44.484;11.240;2024-01-30T02:28:40;0.60;99.90
18339;DHT22;9295;44.484;11.240;2024-01-30T02:31:08;0.60;99.90
18339;DHT22;9295;44.484;11.240;2024-01-30T02:33:36;0.50;99.90
18339;DHT22;9295;44.484;11.240;2024-01-30T02:36:05;0.50;99.90
18339;DHT22;9295;44.484;11.240;2024-01-30T02:38:35;0.50;99.90
18339;DHT22;9295;44.484;11.240;2024-01-30T02:41:04;0.50;99.90
18339;DHT22;9295;44.484;11.240;2024-01-30T02:43:32;0.50;99.90
18339;DHT22;9295;44.484;11.240;2024-01-30T02:46:00;0.50;99.90
18339;DHT22;9295;44.484;11.240;2024-01-30T02:48:29;0.50;99.90
18339;DHT22;9295;44.484;11.240;2024-01-30T02:50:57;0.50;99.90
18339;DHT22;9295;44.484;11.240;2024-01-30T02:53:26;0.50;99.90
18339;DHT22;9295;44.484;11.240;2024-01-30T02:55:56;0.50;99.90
18339;DHT22;9295;44.484;11.240;2024-01-30T02:58:25;0.50;99.90
18339;DHT22;9295;44.484;11.240;2024-01-30T03:00:54;0.40;99.90
18339;DHT22;9295;44.484;11.240;2024-01-30T03:03:22;0.40;99.90
18339;DHT22;9295;44.484;11.240;2024-01-30T03:05:51;0.40;99.90
18339;DHT22;9295;44.484;11.240;2024-01-30T03:08:20;0.40;99.90
18339;DHT22;9295;44.484;11.240;2024-01-30T03:10:48;0.40;99.90
18339;DHT22;9295;44.484;11.240;2024-01-30T03:13:18;0.40;99.90
18339;DHT22;9295;44.484;11.240;2024-01-30T03:15:47;0.30;99.90
18339;DHT22;9295;44.484;11.240;2024-01-30T03:18:16;0.30;99.90
18339;DHT22;9295;44.484;11.240;2024-01-30T03:20:45;0.30;99.90
18339;DHT22;9295;44.484;11.240;2024-01-30T03:23:13;0.40;99.90
18339;DHT22;9295;44.484;11.240;2024-01-30T03:25:42;0.30;99.90
18339;DHT22;9295;44.484;11.240;2024-01-30T03:28:10;0.30;99.90
18339;DHT22;9295;44.484;11.240;2024-01-30T03:30:40;0.30;99.90
18339;DHT22;9295;44.484;11.240;2024-01-30T03:33:08;0.30;99.90
18339;DHT22;9295;44.484;11.240;2024-01-30T03:35:37;0.30;99.90
18339;DHT22;9295;44.484;11.240;2024-01-30T03:38:05;0.30;99.90
18339;DHT22;9295;44.484;11.240;2024-01-30T03:40:34;0.30;99.90
18339;DHT22;9295;44.484;11.240;2024-01-30T03:43:02;0.30;99.90
18339;DHT22;9295;44.484;11.240;2024-01-30T03:45:32;0.30;99.90
18339;DHT22;9295;44.484;11.240;2024-01-30T03:48:02;0.30;99.90
18339;DHT22;9295;44.484;11.240;2024-01-30T03:50:30;0.30;99.90
18339;DHT22;9295;44.484;11.240;2024-01-30T03:52:59;0.30;99.90
18339;DHT22;9295;44.484;11.240;2024-01-30T03:55:28;0.30;99.90
18339;DHT22;9295;44.484;11.240;2024-01-30T03:57:56;0.30;99.90
18339;DHT22;9295;44.484;11.240;2024-01-30T04:00:25;0.30;99.90
18339;DHT22;9295;44.484;11.240;2024-01-30T04:02:53;0.30;99.90
18339;DHT22;9295;44.484;11.240;2024-01-30T04:05:24;0.30;99.90
18339;DHT22;9295;44.484;11.240;2024-01-30T04:07:52;0.20;99.90
18339;DHT22;9295;44.484;11.240;2024-01-30T04:10:20;0.20;99.90
18339;DHT22;9295;44.484;11.240;2024-01-30T04:12:49;0.20;99.90
18339;DHT22;9295;44.484;11.240;2024-01-30T04:15:18;0.20;99.90
18339;DHT22;9295;44.484;11.240;2024-01-30T04:17:47;0.20;99.90
18339;DHT22;9295;44.484;11.240;2024-01-30T04:20:16;0.20;99.90
18339;DHT22;9295;44.484;11.240;2024-01-30T04:22:46;0.20;99.90
18339;DHT22;9295;44.484;11.240;2024-01-30T04:25:14;0.10;99.90
18339;DHT22;9295;44.484;11.240;2024-01-30T04:27:43;0.10;99.90
18339;DHT22;9295;44.484;11.240;2024-01-30T04:30:12;0.10;99.90
18339;DHT22;9295;44.484;11.240;2024-01-30T04:32:40;0.10;99.90
18339;DHT22;9295;44.484;11.240;2024-01-30T04:35:09;0.10;99.90
18339;DHT22;9295;44.484;11.240;2024-01-30T04:37:38;0.00;99.90
18339;DHT22;9295;44.484;11.240;2024-01-30T04:40:09;0.00;99.90
18339;DHT22;9295;44.484;11.240;2024-01-30T04:42:38;0.00;99.90
18339;DHT22;9295;44.484;11.240;2024-01-30T04:45:06;0.00;99.90
18339;DHT22;9295;44.484;11.240;2024-01-30T04:47:35;0.00;99.90
18339;DHT22;9295;44.484;11.240;2024-01-30T04:50:04;0.00;99.90
18339;DHT22;9295;44.484;11.240;2024-01-30T04:52:33;0.00;99.90
18339;DHT22;9295;44.484;11.240;2024-01-30T04:55:01;-0.10;99.90
18339;DHT22;9295;44.484;11.240;2024-01-30T04:57:32;0.00;99.90
18339;DHT22;9295;44.484;11.240;2024-01-30T05:00:00;-0.10;99.90
18339;DHT22;9295;44.484;11.240;2024-01-30T05:02:30;-0.10;99.90
18339;DHT22;9295;44.484;11.240;2024-01-30T05:04:58;-0.10;99.90
18339;DHT22;9295;44.484;11.240;2024-01-30T05:07:26;-0.20;99.90
18339;DHT22;9295;44.484;11.240;2024-01-30T05:09:55;-0.20;99.90
18339;DHT22;9295;44.484;11.240;2024-01-30T05:12:26;-0.20;99.90
18339;DHT22;9295;44.484;11.240;2024-01-30T05:14:56;-0.10;99.90
18339;DHT22;9295;44.484;11.240;2024-01-30T05:17:24;-0.10;99.90
18339;DHT22;9295;44.484;11.240;2024-01-30T05:19:53;-0.20;99.90
18339;DHT22;9295;44.484;11.240;2024-01-30T05:22:21;-0.20;99.90
18339;DHT22;9295;44.484;11.240;2024-01-30T05:24:50;-0.20;99.90
18339;DHT22;9295;44.484;11.240;2024-01-30T05:27:18;-0.20;99.90
18339;DHT22;9295;44.484;11.240;2024-01-30T05:29:47;-0.30;99.90
18339;DHT22;9295;44.484;11.240;2024-01-30T05:32:18;-0.30;99.90
18339;DHT22;9295;44.484;11.240;2024-01-30T05:34:46;-0.30;99.90
18339;DHT22;9295;44.484;11.240;2024-01-30T05:37:17;-0.40;99.90
18339;DHT22;9295;44.484;11.240;2024-01-30T05:39:46;-0.30;99.90
18339;DHT22;9295;44.484;11.240;2024-01-30T05:42:14;-0.30;99.90
18339;DHT22;9295;44.484;11.240;2024-01-30T05:44:44;-0.30;99.90
18339;DHT22;9295;44.484;11.240;2024-01-30T05:47:12;-0.30;99.90
18339;DHT22;9295;44.484;11.240;2024-01-30T05:49:42;-0.30;99.90
18339;DHT22;9295;44.484;11.240;2024-01-30T05:52:10;-0.30;99.90
18339;DHT22;9295;44.484;11.240;2024-01-30T05:54:39;-0.40;99.90
18339;DHT22;9295;44.484;11.240;2024-01-30T05:57:07;-0.30;99.90
18339;DHT22;9295;44.484;11.240;2024-01-30T05:59:36;-0.40;99.90
18339;DHT22;9295;44.484;11.240;2024-01-30T06:02:08;-0.40;99.90
18339;DHT22;9295;44.484;11.240;2024-01-30T06:04:36;-0.40;99.90
18339;DHT22;9295;44.484;11.240;2024-01-30T06:07:07;-0.50;99.90
18339;DHT22;9295;44.484;11.240;2024-01-30T06:09:35;-0.50;99.90
18339;DHT22;9295;44.484;11.240;2024-01-30T06:12:05;-0.50;99.90
18339;DHT22;9295;44.484;11.240;2024-01-30T06:14:34;-0.50;99.90
18339;DHT22;9295;44.484;11.240;2024-01-30T06:17:03;-0.50;99.90
18339;DHT22;9295;44.484;11.240;2024-01-30T06:19:31;-0.50;99.90
18339;DHT22;9295;44.484;11.240;2024-01-30T06:22:00;-0.40;99.90
18339;DHT22;9295;44.484;11.240;2024-01-30T06:24:33;-0.50;99.90
18339;DHT22;9295;44.484;11.240;2024-01-30T06:27:02;-0.50;99.90
18339;DHT22;9295;44.484;11.240;2024-01-30T06:29:31;-0.50;99.90
18339;DHT22;9295;44.484;11.240;2024-01-30T06:31:59;-0.50;99.90
18339;DHT22;9295;44.484;11.240;2024-01-30T06:34:28;-0.60;99.90
18339;DHT22;9295;44.484;11.240;2024-01-30T06:36:56;-0.60;99.90
18339;DHT22;9295;44.484;11.240;2024-01-30T06:39:25;-0.60;99.90
18339;DHT22;9295;44.484;11.240;2024-01-30T06:41:55;-0.50;99.90
18339;DHT22;9295;44.484;11.240;2024-01-30T06:44:24;-0.50;99.90
18339;DHT22;9295;44.484;11.240;2024-01-30T06:46:52;-0.50;99.90
18339;DHT22;9295;44.484;11.240;2024-01-30T06:49:21;-0.50;99.90
18339;DHT22;9295;44.484;11.240;2024-01-30T06:51:50;-0.40;99.90
18339;DHT22;9295;44.484;11.240;2024-01-30T06:54:18;-0.50;99.90
18339;DHT22;9295;44.484;11.240;2024-01-30T06:56:47;-0.50;99.90
18339;DHT22;9295;44.484;11.240;2024-01-30T06:59:17;-0.50;99.90
18339;DHT22;9295;44.484;11.240;2024-01-30T07:01:45;-0.40;99.90
18339;DHT22;9295;44.484;11.240;2024-01-30T07:04:14;-0.30;99.90
18339;DHT22;9295;44.484;11.240;2024-01-30T07:06:43;-0.40;99.90
18339;DHT22;9295;44.484;11.240;2024-01-30T07:09:12;-0.40;99.90
18339;DHT22;9295;44.484;11.240;2024-01-30T07:11:41;-0.30;99.90
18339;DHT22;9295;44.484;11.240;2024-01-30T07:14:10;-0.20;99.90
18339;DHT22;9295;44.484;11.240;2024-01-30T07:16:40;-0.20;99.90
18339;DHT22;9295;44.484;11.240;2024-01-30T07:19:08;0.00;99.90
18339;DHT22;9295;44.484;11.240;2024-01-30T07:21:37;0.00;99.90
18339;DHT22;9295;44.484;11.240;2024-01-30T07:24:07;0.00;99.90
18339;DHT22;9295;44.484;11.240;2024-01-30T07:26:36;0.60;99.90
18339;DHT22;9295;44.484;11.240;2024-01-30T07:29:04;1.30;99.90
18339;DHT22;9295;44.484;11.240;2024-01-30T07:31:33;2.50;99.90
18339;DHT22;9295;44.484;11.240;2024-01-30T07:34:03;3.80;99.90
18339;DHT22;9295;44.484;11.240;2024-01-30T07:36:32;5.00;99.90
18339;DHT22;9295;44.484;11.240;2024-01-30T07:39:00;5.90;99.90
18339;DHT22;9295;44.484;11.240;2024-01-30T07:41:29;6.80;99.90
18339;DHT22;9295;44.484;11.240;2024-01-30T07:43:58;7.70;99.90
18339;DHT22;9295;44.484;11.240;2024-01-30T07:46:27;8.40;99.90
18339;DHT22;9295;44.484;11.240;2024-01-30T07:48:58;8.80;99.90
18339;DHT22;9295;44.484;11.240;2024-01-30T07:51:28;9.20;99.90
18339;DHT22;9295;44.484;11.240;2024-01-30T07:54:00;9.70;99.90
18339;DHT22;9295;44.484;11.240;2024-01-30T07:56:29;10.40;99.90
18339;DHT22;9295;44.484;11.240;2024-01-30T07:58:58;10.80;99.90
18339;DHT22;9295;44.484;11.240;2024-01-30T08:01:26;11.20;99.90
18339;DHT22;9295;44.484;11.240;2024-01-30T08:03:55;11.40;99.90
18339;DHT22;9295;44.484;11.240;2024-01-30T08:06:23;11.70;99.90
18339;DHT22;9295;44.484;11.240;2024-01-30T08:08:53;11.60;99.90
18339;DHT22;9295;44.484;11.240;2024-01-30T08:11:22;11.50;99.90
18339;DHT22;9295;44.484;11.240;2024-01-30T08:13:53;11.20;99.90
18339;DHT22;9295;44.484;11.240;2024-01-30T08:16:22;10.50;99.90
18339;DHT22;9295;44.484;11.240;2024-01-30T08:18:50;9.40;99.90
18339;DHT22;9295;44.484;11.240;2024-01-30T08:21:20;8.50;99.90
18339;DHT22;9295;44.484;11.240;2024-01-30T08:23:49;7.80;99.90
18339;DHT22;9295;44.484;11.240;2024-01-30T08:26:18;7.00;99.90
18339;DHT22;9295;44.484;11.240;2024-01-30T08:28:47;6.50;99.90
18339;DHT22;9295;44.484;11.240;2024-01-30T08:31:16;6.20;99.90
18339;DHT22;9295;44.484;11.240;2024-01-30T08:33:44;6.00;99.90
18339;DHT22;9295;44.484;11.240;2024-01-30T08:36:17;5.90;99.90
18339;DHT22;9295;44.484;11.240;2024-01-30T08:38:45;5.80;99.90
18339;DHT22;9295;44.484;11.240;2024-01-30T08:41:14;5.70;99.90
18339;DHT22;9295;44.484;11.240;2024-01-30T08:43:44;5.60;99.90
18339;DHT22;9295;44.484;11.240;2024-01-30T08:46:12;5.70;99.90
18339;DHT22;9295;44.484;11.240;2024-01-30T08:48:42;5.70;99.90
18339;DHT22;9295;44.484;11.240;2024-01-30T08:51:10;5.70;99.90
18339;DHT22;9295;44.484;11.240;2024-01-30T08:53:39;5.90;99.90
18339;DHT22;9295;44.484;11.240;2024-01-30T08:56:07;6.20;99.90
18339;DHT22;9295;44.484;11.240;2024-01-30T08:58:36;6.30;99.90
18339;DHT22;9295;44.484;11.240;2024-01-30T09:01:06;6.50;99.90
18339;DHT22;9295;44.484;11.240;2024-01-30T09:03:35;6.50;99.90
18339;DHT22;9295;44.484;11.240;2024-01-30T09:06:04;6.60;99.90
18339;DHT22;9295;44.484;11.240;2024-01-30T09:08:32;6.50;99.90
18339;DHT22;9295;44.484;11.240;2024-01-30T09:11:01;6.60;99.90
18339;DHT22;9295;44.484;11.240;2024-01-30T09:13:29;6.70;99.90
18339;DHT22;9295;44.484;11.240;2024-01-30T09:15:58;6.90;99.90
18339;DHT22;9295;44.484;11.240;2024-01-30T09:18:28;7.10;99.90
18339;DHT22;9295;44.484;11.240;2024-01-30T09:20:56;7.20;99.90
18339;DHT22;9295;44.484;11.240;2024-01-30T09:23:26;7.00;99.90
18339;DHT22;9295;44.484;11.240;2024-01-30T09:25:55;7.00;99.90
18339;DHT22;9295;44.484;11.240;2024-01-30T09:28:24;7.10;99.90
18339;DHT22;9295;44.484;11.240;2024-01-30T09:30:54;7.20;99.90
18339;DHT22;9295;44.484;11.240;2024-01-30T09:33:22;7.20;99.90
18339;DHT22;9295;44.484;11.240;2024-01-30T09:35:52;7.20;99.90
18339;DHT22;9295;44.484;11.240;2024-01-30T09:38:20;7.40;99.90
18339;DHT22;9295;44.484;11.240;2024-01-30T09:40:54;7.20;99.90
18339;DHT22;9295;44.484;11.240;2024-01-30T09:43:23;7.10;99.90
18339;DHT22;9295;44.484;11.240;2024-01-30T09:45:54;6.70;99.90
18339;DHT22;9295;44.484;11.240;2024-01-30T09:48:24;7.20;99.90
18339;DHT22;9295;44.484;11.240;2024-01-30T09:50:55;7.70;99.90
18339;DHT22;9295;44.484;11.240;2024-01-30T09:53:26;7.70;99.90
18339;DHT22;9295;44.484;11.240;2024-01-30T09:55:54;7.50;99.90
18339;DHT22;9295;44.484;11.240;2024-01-30T09:58:23;6.90;99.90
18339;DHT22;9295;44.484;11.240;2024-01-30T10:00:53;6.50;99.90
18339;DHT22;9295;44.484;11.240;2024-01-30T10:03:25;6.20;99.90
18339;DHT22;9295;44.484;11.240;2024-01-30T10:05:56;6.00;99.90
18339;DHT22;9295;44.484;11.240;2024-01-30T10:08:26;5.90;99.90
18339;DHT22;9295;44.484;11.240;2024-01-30T10:10:57;6.20;99.90
18339;DHT22;9295;44.484;11.240;2024-01-30T10:13:26;6.70;99.90
18339;DHT22;9295;44.484;11.240;2024-01-30T10:15:55;6.90;99.90
18339;DHT22;9295;44.484;11.240;2024-01-30T10:18:25;6.80;99.90
18339;DHT22;9295;44.484;11.240;2024-01-30T10:20:55;6.60;99.90
18339;DHT22;9295;44.484;11.240;2024-01-30T10:23:24;6.70;99.90
18339;DHT22;9295;44.484;11.240;2024-01-30T10:25:55;6.80;99.90
18339;DHT22;9295;44.484;11.240;2024-01-30T10:28:27;6.70;99.90
18339;DHT22;9295;44.484;11.240;2024-01-30T10:31:00;6.70;99.90
18339;DHT22;9295;44.484;11.240;2024-01-30T10:33:33;6.80;99.90
18339;DHT22;9295;44.484;11.240;2024-01-30T10:36:04;7.20;99.90
18339;DHT22;9295;44.484;11.240;2024-01-30T10:38:33;7.10;99.90
18339;DHT22;9295;44.484;11.240;2024-01-30T10:41:02;7.00;99.90
18339;DHT22;9295;44.484;11.240;2024-01-30T10:43:32;6.90;99.90
18339;DHT22;9295;44.484;11.240;2024-01-30T10:46:10;7.10;99.90
18339;DHT22;9295;44.484;11.240;2024-01-30T10:48:42;6.90;99.90
18339;DHT22;9295;44.484;11.240;2024-01-30T10:51:14;7.00;99.90
18339;DHT22;9295;44.484;11.240;2024-01-30T10:53:44;7.30;99.90
18339;DHT22;9295;44.484;11.240;2024-01-30T10:56:16;7.40;99.90
18339;DHT22;9295;44.484;11.240;2024-01-30T10:58:45;7.40;99.90
18339;DHT22;9295;44.484;11.240;2024-01-30T11:01:14;7.60;99.90
18339;DHT22;9295;44.484;11.240;2024-01-30T11:03:43;7.80;99.90
18339;DHT22;9295;44.484;11.240;2024-01-30T11:06:14;7.60;99.90
18339;DHT22;9295;44.484;11.240;2024-01-30T11:08:46;7.20;99.90
18339;DHT22;9295;44.484;11.240;2024-01-30T11:11:16;7.20;99.90
18339;DHT22;9295;44.484;11.240;2024-01-30T11:13:45;7.50;99.90
18339;DHT22;9295;44.484;11.240;2024-01-30T11:16:20;7.80;99.90
18339;DHT22;9295;44.484;11.240;2024-01-30T11:18:51;7.90;99.90
18339;DHT22;9295;44.484;11.240;2024-01-30T11:21:25;7.60;99.90
18339;DHT22;9295;44.484;11.240;2024-01-30T11:23:55;7.90;99.90
18339;DHT22;9295;44.484;11.240;2024-01-30T11:26:27;8.20;99.90
18339;DHT22;9295;44.484;11.240;2024-01-30T11:28:57;8.30;99.90
18339;DHT22;9295;44.484;11.240;2024-01-30T11:31:26;8.10;99.90
18339;DHT22;9295;44.484;11.240;2024-01-30T11:33:56;7.80;99.90
18339;DHT22;9295;44.484;11.240;2024-01-30T11:36:26;7.50;99.90
18339;DHT22;9295;44.484;11.240;2024-01-30T11:38:56;7.50;99.90
18339;DHT22;9295;44.484;11.240;2024-01-30T11:41:24;7.70;99.90
18339;DHT22;9295;44.484;11.240;2024-01-30T11:43:53;7.80;99.90
18339;DHT22;9295;44.484;11.240;2024-01-30T11:46:25;7.70;99.90
18339;DHT22;9295;44.484;11.240;2024-01-30T11:48:53;7.90;99.90
18339;DHT22;9295;44.484;11.240;2024-01-30T11:51:22;8.00;99.90
18339;DHT22;9295;44.484;11.240;2024-01-30T11:53:52;7.80;99.90
18339;DHT22;9295;44.484;11.240;2024-01-30T11:56:20;7.80;99.90
18339;DHT22;9295;44.484;11.240;2024-01-30T11:58:49;8.00;99.90
18339;DHT22;9295;44.484;11.240;2024-01-30T12:01:19;8.00;99.90
18339;DHT22;9295;44.484;11.240;2024-01-30T12:03:49;7.80;99.90
18339;DHT22;9295;44.484;11.240;2024-01-30T12:06:18;7.90;99.90
18339;DHT22;9295;44.484;11.240;2024-01-30T12:08:58;8.20;99.90
18339;DHT22;9295;44.484;11.240;2024-01-30T12:11:27;8.00;99.90
18339;DHT22;9295;44.484;11.240;2024-01-30T12:13:57;7.90;99.90
18339;DHT22;9295;44.484;11.240;2024-01-30T12:16:26;8.00;99.90
18339;DHT22;9295;44.484;11.240;2024-01-30T12:19:03;8.20;99.90
18339;DHT22;9295;44.484;11.240;2024-01-30T12:21:33;8.00;99.90
18339;DHT22;9295;44.484;11.240;2024-01-30T12:24:03;8.00;99.90
18339;DHT22;9295;44.484;11.240;2024-01-30T12:26:34;8.00;99.90
18339;DHT22;9295;44.484;11.240;2024-01-30T12:29:04;8.40;99.90
18339;DHT22;9295;44.484;11.240;2024-01-30T12:31:33;8.60;99.90
18339;DHT22;9295;44.484;11.240;2024-01-30T12:34:02;8.80;99.90
18339;DHT22;9295;44.484;11.240;2024-01-30T12:36:31;8.50;99.90
18339;DHT22;9295;44.484;11.240;2024-01-30T12:38:59;8.30;99.90
18339;DHT22;9295;44.484;11.240;2024-01-30T12:41:29;8.30;99.90
18339;DHT22;9295;44.484;11.240;2024-01-30T12:43:59;8.60;99.90
18339;DHT22;9295;44.484;11.240;2024-01-30T12:46:28;8.70;99.90
18339;DHT22;9295;44.484;11.240;2024-01-30T12:48:57;8.90;99.90
18339;DHT22;9295;44.484;11.240;2024-01-30T12:51:26;9.00;99.90
18339;DHT22;9295;44.484;11.240;2024-01-30T12:53:54;8.80;99.90
18339;DHT22;9295;44.484;11.240;2024-01-30T12:56:23;8.80;99.90
18339;DHT22;9295;44.484;11.240;2024-01-30T12:58:53;8.90;99.90
18339;DHT22;9295;44.484;11.240;2024-01-30T13:01:22;9.00;99.90
18339;DHT22;9295;44.484;11.240;2024-01-30T13:03:50;8.70;99.90
18339;DHT22;9295;44.484;11.240;2024-01-30T13:06:20;8.60;99.90
18339;DHT22;9295;44.484;11.240;2024-01-30T13:08:49;8.80;99.90
18339;DHT22;9295;44.484;11.240;2024-01-30T13:11:17;9.00;99.90
18339;DHT22;9295;44.484;11.240;2024-01-30T13:13:48;8.70;99.90
18339;DHT22;9295;44.484;11.240;2024-01-30T13:16:18;8.50;99.90
18339;DHT22;9295;44.484;11.240;2024-01-30T13:18:46;8.60;99.90
18339;DHT22;9295;44.484;11.240;2024-01-30T13:21:15;8.90;99.90
18339;DHT22;9295;44.484;11.240;2024-01-30T13:23:44;9.00;99.90
18339;DHT22;9295;44.484;11.240;2024-01-30T13:26:12;9.20;99.90
18339;DHT22;9295;44.484;11.240;2024-01-30T13:28:41;8.90;99.90
18339;DHT22;9295;44.484;11.240;2024-01-30T13:31:12;8.60;99.90
18339;DHT22;9295;44.484;11.240;2024-01-30T13:33:42;8.40;99.90
18339;DHT22;9295;44.484;11.240;2024-01-30T13:36:11;8.70;99.90
18339;DHT22;9295;44.484;11.240;2024-01-30T13:38:40;8.90;99.90
18339;DHT22;9295;44.484;11.240;2024-01-30T13:41:08;9.00;99.90
18339;DHT22;9295;44.484;11.240;2024-01-30T13:43:37;9.10;99.90
18339;DHT22;9295;44.484;11.240;2024-01-30T13:46:05;9.00;99.90
18339;DHT22;9295;44.484;11.240;2024-01-30T13:48:34;8.70;99.90
18339;DHT22;9295;44.484;11.240;2024-01-30T13:51:04;8.50;99.90
18339;DHT22;9295;44.484;11.240;2024-01-30T13:53:33;8.70;99.90
18339;DHT22;9295;44.484;11.240;2024-01-30T13:56:01;9.10;99.90
18339;DHT22;9295;44.484;11.240;2024-01-30T13:58:30;9.40;99.90
18339;DHT22;9295;44.484;11.240;2024-01-30T14:01:01;9.50;99.90
18339;DHT22;9295;44.484;11.240;2024-01-30T14:03:29;9.20;99.90
18339;DHT22;9295;44.484;11.240;2024-01-30T14:05:58;8.90;99.90
18339;DHT22;9295;44.484;11.240;2024-01-30T14:08:29;8.70;99.90
18339;DHT22;9295;44.484;11.240;2024-01-30T14:10:57;8.90;99.90
18339;DHT22;9295;44.484;11.240;2024-01-30T14:13:26;9.20;99.90
18339;DHT22;9295;44.484;11.240;2024-01-30T14:15:56;9.30;99.90
18339;DHT22;9295;44.484;11.240;2024-01-30T14:18:25;9.40;99.90
18339;DHT22;9295;44.484;11.240;2024-01-30T14:20:53;9.40;99.90
18339;DHT22;9295;44.484;11.240;2024-01-30T14:23:23;9.10;99.90
18339;DHT22;9295;44.484;11.240;2024-01-30T14:25:53;8.80;99.90
18339;DHT22;9295;44.484;11.240;2024-01-30T14:28:22;8.70;99.90
18339;DHT22;9295;44.484;11.240;2024-01-30T14:30:50;9.00;99.90
18339;DHT22;9295;44.484;11.240;2024-01-30T14:33:18;8.70;99.90
18339;DHT22;9295;44.484;11.240;2024-01-30T14:35:47;8.70;99.90
18339;DHT22;9295;44.484;11.240;2024-01-30T14:38:15;8.90;99.90
18339;DHT22;9295;44.484;11.240;2024-01-30T14:40:44;9.10;99.90
18339;DHT22;9295;44.484;11.240;2024-01-30T14:43:14;9.30;99.90
18339;DHT22;9295;44.484;11.240;2024-01-30T14:45:42;9.50;99.90
18339;DHT22;9295;44.484;11.240;2024-01-30T14:48:13;9.10;99.90
18339;DHT22;9295;44.484;11.240;2024-01-30T14:50:41;9.30;99.90
18339;DHT22;9295;44.484;11.240;2024-01-30T14:53:10;9.60;99.90
18339;DHT22;9295;44.484;11.240;2024-01-30T14:55:39;9.70;99.90
18339;DHT22;9295;44.484;11.240;2024-01-30T14:58:07;9.60;99.90
18339;DHT22;9295;44.484;11.240;2024-01-30T15:00:38;9.20;99.90
18339;DHT22;9295;44.484;11.240;2024-01-30T15:03:06;8.80;99.90
18339;DHT22;9295;44.484;11.240;2024-01-30T15:05:35;8.50;99.90
18339;DHT22;9295;44.484;11.240;2024-01-30T15:08:04;8.40;99.90
18339;DHT22;9295;44.484;11.240;2024-01-30T15:10:33;8.80;99.90
18339;DHT22;9295;44.484;11.240;2024-01-30T15:13:01;9.00;99.90
18339;DHT22;9295;44.484;11.240;2024-01-30T15:15:30;8.90;99.90
18339;DHT22;9295;44.484;11.240;2024-01-30T15:17:59;8.60;99.90
18339;DHT22;9295;44.484;11.240;2024-01-30T15:20:28;8.60;99.90
18339;DHT22;9295;44.484;11.240;2024-01-30T15:22:58;8.60;99.90
18339;DHT22;9295;44.484;11.240;2024-01-30T15:25:27;8.70;99.90
18339;DHT22;9295;44.484;11.240;2024-01-30T15:27:56;8.60;99.90
18339;DHT22;9295;44.484;11.240;2024-01-30T15:30:25;8.50;99.90
18339;DHT22;9295;44.484;11.240;2024-01-30T15:32:53;8.30;99.90
18339;DHT22;9295;44.484;11.240;2024-01-30T15:35:23;8.20;99.90
18339;DHT22;9295;44.484;11.240;2024-01-30T15:37:52;8.20;99.90
18339;DHT22;9295;44.484;11.240;2024-01-30T15:40:20;8.00;99.90
18339;DHT22;9295;44.484;11.240;2024-01-30T15:42:49;7.80;99.90
18339;DHT22;9295;44.484;11.240;2024-01-30T15:45:17;7.70;99.90
18339;DHT22;9295;44.484;11.240;2024-01-30T15:47:46;7.80;99.90
18339;DHT22;9295;44.484;11.240;2024-01-30T15:50:15;7.90;99.90
18339;DHT22;9295;44.484;11.240;2024-01-30T15:52:45;8.00;99.90
18339;DHT22;9295;44.484;11.240;2024-01-30T15:55:13;8.00;99.90